createdAt,value
2022-08-27T00:01:23.266Z,97919.54
2022-08-27T00:03:56.809Z,97921.22
2022-08-27T00:06:29.654Z,97918.90
2022-08-27T00:09:05.558Z,97920.36
2022-08-27T00:11:38.369Z,97919.59
2022-08-27T00:14:10.571Z,97915.55
2022-08-27T00:16:43.955Z,97914.77
2022-08-27T00:19:16.327Z,97918.94
2022-08-27T00:21:50.252Z,97915.17
2022-08-27T00:24:22.499Z,97919.53
2022-08-27T00:26:54.720Z,97921.52
2022-08-27T00:29:27.476Z,97922.94
2022-08-27T00:32:02.357Z,97918.73
2022-08-27T00:34:34.582Z,97919.98
2022-08-27T00:37:07.767Z,97921.00
2022-08-27T00:39:40.075Z,97918.96
2022-08-27T00:42:14.043Z,97917.69
2022-08-27T00:44:46.214Z,97915.40
2022-08-27T00:47:21.558Z,97914.48
2022-08-27T00:49:59.964Z,97913.13
2022-08-27T00:52:35.783Z,97910.88
2022-08-27T00:55:11.934Z,97907.89
2022-08-27T00:57:46.312Z,97906.70
2022-08-27T01:00:20.535Z,97906.48
2022-08-27T01:02:52.763Z,97907.91
2022-08-27T01:05:28.089Z,97908.73
2022-08-27T01:08:05.205Z,97903.53
2022-08-27T01:10:39.639Z,97907.89
2022-08-27T01:13:14.178Z,97911.77
2022-08-27T01:15:48.053Z,97909.44
2022-08-27T01:18:21.569Z,97913.87
2022-08-27T01:20:58.816Z,97914.92
2022-08-27T01:23:38.911Z,97916.89
2022-08-27T01:26:15.051Z,97918.74
2022-08-27T01:28:49.263Z,97918.02
2022-08-27T01:31:21.897Z,97919.77
2022-08-27T01:34:03.907Z,97920.13
2022-08-27T01:36:37.217Z,97919.79
2022-08-27T01:39:09.870Z,97920.75
2022-08-27T01:41:45.374Z,97918.75
2022-08-27T01:44:20.836Z,97916.84
2022-08-27T01:46:53.503Z,97916.17
2022-08-27T01:49:25.701Z,97911.70
2022-08-27T01:51:58.346Z,97906.29
2022-08-27T01:54:31.278Z,97903.73
2022-08-27T01:57:04.066Z,97900.27
2022-08-27T01:59:39.378Z,97902.56
2022-08-27T02:02:13.429Z,97902.16
2022-08-27T02:04:46.691Z,97907.17
2022-08-27T02:07:19.360Z,97909.35
2022-08-27T02:09:52.173Z,97910.38
2022-08-27T02:12:27.052Z,97904.00
2022-08-27T02:14:59.269Z,97903.29
2022-08-27T02:17:31.485Z,97896.02
2022-08-27T02:20:03.800Z,97894.95
2022-08-27T02:22:36.779Z,97894.55
2022-08-27T02:25:12.276Z,97888.38
2022-08-27T02:27:45.319Z,97893.27
2022-08-27T02:30:22.616Z,97890.98
2022-08-27T02:32:55.180Z,97891.31
2022-08-27T02:35:27.927Z,97888.85
2022-08-27T02:38:00.638Z,97889.67
2022-08-27T02:40:32.974Z,97892.61
2022-08-27T02:43:05.507Z,97892.69
2022-08-27T02:45:39.025Z,97893.02
2022-08-27T02:48:11.841Z,97890.98
2022-08-27T02:50:45.373Z,97892.27
2022-08-27T02:53:18.522Z,97897.41
2022-08-27T02:55:52.375Z,97895.83
2022-08-27T02:58:24.964Z,97895.98
2022-08-27T03:00:58.114Z,97891.60
2022-08-27T03:03:32.104Z,97888.73
2022-08-27T03:06:04.536Z,97887.12
2022-08-27T03:08:51.940Z,97885.28
2022-08-27T03:11:25.731Z,97883.21
2022-08-27T03:13:58.754Z,97881.34
2022-08-27T03:16:30.974Z,97876.09
2022-08-27T03:19:04.370Z,97876.48
2022-08-27T03:21:37.558Z,97876.18
2022-08-27T03:24:11.558Z,97878.66
2022-08-27T03:26:52.746Z,97882.45
2022-08-27T03:29:27.247Z,97878.10
2022-08-27T03:31:59.413Z,97878.23
2022-08-27T03:34:31.756Z,97877.73
2022-08-27T03:37:04.183Z,97877.00
2022-08-27T03:39:36.446Z,97874.55
2022-08-27T03:42:08.912Z,97874.73
2022-08-27T03:44:41.091Z,97877.68
2022-08-27T03:47:13.335Z,97876.13
2022-08-27T03:49:46.194Z,97874.61
2022-08-27T03:52:18.617Z,97873.28
2022-08-27T03:54:51.313Z,97869.89
2022-08-27T03:57:24.305Z,97871.56
2022-08-27T03:59:57.090Z,97871.19
2022-08-27T04:02:29.447Z,97874.95
2022-08-27T04:05:01.815Z,97876.28
2022-08-27T04:07:34.068Z,97879.20
2022-08-27T04:10:07.732Z,97875.59
2022-08-27T04:12:40.041Z,97874.02
2022-08-27T04:15:14.945Z,97877.47
2022-08-27T04:17:47.080Z,97875.13
2022-08-27T04:20:34.997Z,97877.95
2022-08-27T04:23:08.320Z,97881.08
2022-08-27T04:25:43.789Z,97882.45
2022-08-27T04:28:16.915Z,97885.45
2022-08-27T04:30:49.432Z,97885.83
2022-08-27T04:33:21.646Z,97885.48
2022-08-27T04:36:01.641Z,97886.73
2022-08-27T04:38:34.772Z,97882.91
2022-08-27T04:41:21.646Z,97883.83
2022-08-27T04:43:57.929Z,97881.23
2022-08-27T04:46:32.455Z,97882.05
2022-08-27T04:49:10.242Z,97883.83
2022-08-27T04:51:43.303Z,97881.47
2022-08-27T04:54:18.213Z,97877.96
2022-08-27T04:56:55.703Z,97881.02
2022-08-27T04:59:28.251Z,97882.05
2022-08-27T05:02:03.543Z,97882.52
2022-08-27T05:04:39.175Z,97883.87
2022-08-27T05:07:12.172Z,97888.56
2022-08-27T05:09:44.756Z,97893.42
2022-08-27T05:12:19.509Z,97891.17
2022-08-27T05:14:51.649Z,97890.39
2022-08-27T05:17:23.823Z,97889.39
2022-08-27T05:19:56.075Z,97894.11
2022-08-27T05:22:28.761Z,97894.88
2022-08-27T05:25:01.529Z,97896.52
2022-08-27T05:27:34.268Z,97899.25
2022-08-27T05:30:07.431Z,97902.15
2022-08-27T05:32:40.134Z,97903.23
2022-08-27T05:35:15.588Z,97900.20
2022-08-27T05:37:47.931Z,97904.70
2022-08-27T05:40:20.618Z,97902.95
2022-08-27T05:42:52.998Z,97900.25
2022-08-27T05:45:25.277Z,97894.38
2022-08-27T05:47:57.523Z,97892.08
2022-08-27T05:50:30.215Z,97892.31
2022-08-27T05:53:02.375Z,97888.73
2022-08-27T05:55:39.411Z,97889.77
2022-08-27T05:58:36.153Z,97884.35
2022-08-27T06:01:10.402Z,97890.59
2022-08-27T06:03:43.932Z,97896.49
2022-08-27T06:06:16.485Z,97897.40
2022-08-27T06:08:49.039Z,97905.57
2022-08-27T06:11:21.905Z,97906.52
2022-08-27T06:13:54.180Z,97906.90
2022-08-27T06:16:26.633Z,97905.29
2022-08-27T06:18:59.470Z,97905.92
2022-08-27T06:21:34.722Z,97908.12
2022-08-27T06:24:07.700Z,97912.08
2022-08-27T06:26:40.378Z,97911.52
2022-08-27T06:29:13.659Z,97913.80
2022-08-27T06:31:47.934Z,97905.14
2022-08-27T06:34:21.181Z,97909.55
2022-08-27T06:36:54.638Z,97907.02
2022-08-27T06:39:26.989Z,97908.76
2022-08-27T06:42:00.216Z,97909.90
2022-08-27T06:44:36.541Z,97908.80
2022-08-27T06:47:08.956Z,97905.03
2022-08-27T06:49:43.842Z,97909.98
2022-08-27T06:52:19.004Z,97906.50
2022-08-27T06:54:51.769Z,97903.32
2022-08-27T06:57:24.755Z,97901.69
2022-08-27T06:59:57.085Z,97895.63
2022-08-27T07:02:29.582Z,97901.60
2022-08-27T07:05:02.241Z,97902.40
2022-08-27T07:07:43.237Z,97909.73
2022-08-27T07:10:18.050Z,97908.38
2022-08-27T07:12:50.560Z,97910.36
2022-08-27T07:15:25.226Z,97909.73
2022-08-27T07:18:00.894Z,97904.89
2022-08-27T07:20:35.128Z,97906.09
2022-08-27T07:23:10.974Z,97901.73
2022-08-27T07:25:44.814Z,97900.68
2022-08-27T07:28:17.256Z,97899.16
2022-08-27T07:30:49.563Z,97896.33
2022-08-27T07:33:22.714Z,97887.20
2022-08-27T07:35:55.327Z,97893.62
2022-08-27T07:38:30.974Z,97899.56
2022-08-27T07:41:05.627Z,97898.79
2022-08-27T07:43:56.518Z,97899.62
2022-08-27T07:46:29.054Z,97904.80
2022-08-27T07:49:01.343Z,97901.13
2022-08-27T07:51:37.196Z,97907.80
2022-08-27T07:54:09.493Z,97908.30
2022-08-27T07:56:42.199Z,97912.35
2022-08-27T07:59:17.053Z,97913.91
2022-08-27T08:01:49.623Z,97912.40
2022-08-27T08:04:23.010Z,97913.75
2022-08-27T08:06:57.050Z,97915.23
2022-08-27T08:09:30.808Z,97919.90
2022-08-27T08:12:03.275Z,97926.33
2022-08-27T08:14:35.723Z,97931.52
2022-08-27T08:17:10.226Z,97929.77
2022-08-27T08:19:53.467Z,97931.86
2022-08-27T08:22:35.111Z,97929.33
2022-08-27T08:25:12.944Z,97922.82
2022-08-27T08:27:48.204Z,97919.20
2022-08-27T08:30:23.822Z,97925.85
2022-08-27T08:32:56.541Z,97927.09
2022-08-27T08:35:35.005Z,97927.38
2022-08-27T08:38:13.385Z,97930.77
2022-08-27T08:40:49.701Z,97931.92
2022-08-27T08:43:31.692Z,97919.26
2022-08-27T08:46:12.602Z,97919.14
2022-08-27T08:48:50.931Z,97914.09
2022-08-27T08:51:31.432Z,97923.21
2022-08-27T08:54:08.238Z,97917.34
2022-08-27T08:56:54.822Z,97921.34
2022-08-27T08:59:33.978Z,97914.25
2022-08-27T09:02:13.246Z,97916.21
2022-08-27T09:04:46.465Z,97916.53
2022-08-27T09:07:27.679Z,97915.21
2022-08-27T09:10:08.670Z,97916.30
2022-08-27T09:12:41.554Z,97919.21
2022-08-27T09:15:18.325Z,97911.66
2022-08-27T09:17:50.816Z,97913.38
2022-08-27T09:20:25.484Z,97903.31
2022-08-27T09:23:08.135Z,97901.11
2022-08-27T09:25:43.057Z,97913.75
2022-08-27T09:28:38.973Z,97899.27
2022-08-27T09:31:18.120Z,97900.61
2022-08-27T09:33:56.172Z,97894.86
2022-08-27T09:36:29.507Z,97889.95
2022-08-27T09:39:07.382Z,97887.41
2022-08-27T09:41:46.977Z,97884.91
2022-08-27T09:44:22.962Z,97875.58
2022-08-27T09:46:59.292Z,97877.22
2022-08-27T09:49:34.701Z,97871.72
2022-08-27T09:52:07.234Z,97872.80
2022-08-27T09:54:46.849Z,97867.98
2022-08-27T09:57:36.217Z,97863.40
2022-08-27T10:00:15.664Z,97842.48
2022-08-27T10:02:56.409Z,97854.82
2022-08-27T10:05:32.607Z,97861.48
2022-08-27T10:08:20.012Z,97849.22
2022-08-27T10:10:57.802Z,97847.70
2022-08-27T10:13:40.906Z,97845.95
2022-08-27T10:16:34.445Z,97850.20
2022-08-27T10:19:19.702Z,97847.88
2022-08-27T10:21:58.266Z,97847.52
2022-08-27T10:24:52.830Z,97843.50
2022-08-27T10:27:31.214Z,97823.38
2022-08-27T10:30:09.653Z,97815.80
2022-08-27T10:33:03.721Z,97811.32
2022-08-27T10:35:54.355Z,97817.92
2022-08-27T10:38:43.854Z,97792.92
2022-08-27T10:41:24.684Z,97797.66
2022-08-27T10:44:28.883Z,97803.84
2022-08-27T10:47:14.723Z,97798.71
2022-08-27T10:49:58.972Z,97800.41
2022-08-27T10:52:35.545Z,97786.16
2022-08-27T10:55:17.926Z,97795.94
2022-08-27T10:58:13.412Z,97800.63
2022-08-27T11:00:59.540Z,97797.13
2022-08-27T11:03:37.460Z,97794.50
2022-08-27T11:06:20.673Z,97791.77
2022-08-27T11:08:58.624Z,97781.77
2022-08-27T11:14:37.586Z,97773.37
2022-08-27T11:17:14.277Z,97777.30
2022-08-27T11:19:54.676Z,97792.00
2022-08-27T11:22:35.199Z,97788.73
2022-08-27T11:25:20.028Z,97789.86
2022-08-27T11:27:55.135Z,97774.64
2022-08-27T11:30:37.723Z,97775.73
2022-08-27T11:33:17.474Z,97782.07
2022-08-27T11:36:05.958Z,97783.60
2022-08-27T11:38:56.102Z,97782.23
2022-08-27T11:41:44.667Z,97770.77
2022-08-27T11:44:20.562Z,97767.98
2022-08-27T11:46:57.999Z,97776.36
2022-08-27T11:49:36.541Z,97787.15
2022-08-27T11:52:10.489Z,97793.89
2022-08-27T11:54:52.913Z,97787.75
2022-08-27T11:57:34.304Z,97788.55
2022-08-27T12:00:20.207Z,97783.82
2022-08-27T12:03:02.621Z,97788.18
2022-08-27T12:05:41.973Z,97782.39
2022-08-27T12:08:33.718Z,97781.19
2022-08-27T12:11:19.610Z,97784.77
2022-08-27T12:14:02.000Z,97792.42
2022-08-27T12:16:42.109Z,97784.97
2022-08-27T12:19:41.899Z,97784.85
2022-08-27T12:22:34.764Z,97778.63
2022-08-27T12:25:21.730Z,97779.17
2022-08-27T12:28:03.219Z,97773.25
2022-08-27T12:30:38.078Z,97772.01
2022-08-27T12:33:24.198Z,97775.85
2022-08-27T12:35:59.188Z,97774.09
2022-08-27T12:38:46.309Z,97761.54
2022-08-27T12:41:32.961Z,97751.78
2022-08-27T12:44:24.963Z,97745.88
2022-08-27T12:47:02.987Z,97748.45
2022-08-27T12:49:41.069Z,97742.94
2022-08-27T12:52:29.474Z,97741.79
2022-08-27T12:55:13.634Z,97731.75
2022-08-27T12:57:57.017Z,97727.90
2022-08-27T13:00:36.163Z,97729.71
2022-08-27T13:03:32.428Z,97735.02
2022-08-27T13:06:18.543Z,97732.59
2022-08-27T13:08:59.333Z,97731.64
2022-08-27T13:11:37.159Z,97728.29
2022-08-27T13:14:11.990Z,97730.25
2022-08-27T13:22:06.194Z,97717.70
2022-08-27T13:25:31.223Z,97717.89
2022-08-27T13:28:12.622Z,97713.91
2022-08-27T13:30:49.360Z,97705.94
2022-08-27T13:33:34.728Z,97703.64
2022-08-27T13:57:49.598Z,97699.84
2022-08-27T14:01:45.429Z,97695.80
2022-08-27T14:04:48.214Z,97688.70
2022-08-27T14:07:27.054Z,97693.07
2022-08-27T14:13:28.942Z,97684.92
2022-08-27T14:30:53.606Z,97691.44
2022-08-27T14:33:26.182Z,97689.32
2022-08-27T14:36:06.480Z,97696.63
2022-08-27T14:38:41.560Z,97695.92
2022-08-27T14:42:04.173Z,97699.56
2022-08-27T14:44:38.098Z,97705.09
2022-08-27T14:47:12.520Z,97709.89
2022-08-27T14:49:47.186Z,97721.36
2022-08-27T14:52:19.862Z,97723.73
2022-08-27T14:54:56.142Z,97722.48
2022-08-27T14:57:29.288Z,97729.14
2022-08-27T15:00:04.078Z,97733.71
2022-08-27T15:05:43.684Z,97740.02
2022-08-27T15:08:40.161Z,97738.56
2022-08-27T15:15:07.232Z,97753.66
2022-08-27T15:17:39.850Z,97757.40
2022-08-27T15:20:20.097Z,97762.67
2022-08-27T15:22:54.409Z,97779.85
2022-08-27T15:25:26.745Z,97784.89
2022-08-27T15:27:59.578Z,97792.71
2022-08-27T15:30:32.203Z,97793.52
2022-08-27T15:33:48.463Z,97793.34
2022-08-27T15:40:16.173Z,97800.85
2022-08-27T15:46:50.983Z,97801.56
2022-08-27T15:50:36.216Z,97804.14
2022-08-27T15:53:10.439Z,97805.98
2022-08-27T15:55:47.157Z,97811.98
2022-08-27T15:58:21.987Z,97818.01
2022-08-27T16:01:30.826Z,97825.55
2022-08-27T16:04:04.705Z,97826.55
2022-08-27T16:06:38.828Z,97824.10
2022-08-27T16:09:21.579Z,97822.60
2022-08-27T16:11:54.489Z,97825.47
2022-08-27T16:14:59.387Z,97823.73
2022-08-27T16:17:31.907Z,97825.61
2022-08-27T16:20:13.218Z,97826.86
2022-08-27T16:22:46.696Z,97823.92
2022-08-27T16:29:40.657Z,97823.27
2022-08-27T16:32:23.400Z,97825.07
2022-08-27T16:34:58.600Z,97830.23
2022-08-27T16:37:33.455Z,97829.86
2022-08-27T16:40:47.689Z,97832.62
2022-08-27T16:47:10.557Z,97840.30
2022-08-27T16:50:00.543Z,97840.69
2022-08-27T16:52:33.204Z,97838.88
2022-08-27T16:55:06.696Z,97840.58
2022-08-27T16:57:39.619Z,97843.27
2022-08-27T17:00:14.683Z,97852.20
2022-08-27T17:03:20.310Z,97855.11
2022-08-27T17:05:53.510Z,97857.29
2022-08-27T17:08:27.719Z,97861.91
2022-08-27T17:16:01.137Z,97874.70
2022-08-27T17:18:34.961Z,97883.06
2022-08-27T17:21:07.789Z,97884.98
2022-08-27T17:23:55.262Z,97888.36
2022-08-27T17:26:29.759Z,97888.86
2022-08-27T17:29:02.502Z,97894.33
2022-08-27T17:31:38.247Z,97896.08
2022-08-27T17:34:16.561Z,97894.62
2022-08-27T17:36:49.072Z,97896.83
2022-08-27T17:39:26.578Z,97897.83
2022-08-27T17:41:59.741Z,97900.19
2022-08-27T17:44:34.926Z,97903.14
2022-08-27T17:47:09.101Z,97903.48
2022-08-27T17:49:41.402Z,97909.94
2022-08-27T17:52:15.852Z,97917.73
2022-08-27T17:54:51.091Z,97919.73
2022-08-27T17:57:25.632Z,97924.69
2022-08-27T18:00:02.765Z,97930.56
2022-08-27T18:02:39.976Z,97928.14
2022-08-27T18:05:14.009Z,97931.59
2022-08-27T18:07:48.179Z,97929.77
2022-08-27T18:10:24.483Z,97928.90
2022-08-27T18:12:57.355Z,97934.86
2022-08-27T18:15:32.830Z,97934.73
2022-08-27T18:18:05.516Z,97939.12
2022-08-27T18:20:40.916Z,97939.52
2022-08-27T18:23:15.145Z,97940.45
2022-08-27T18:25:47.504Z,97940.13
2022-08-27T18:28:22.350Z,97943.59
2022-08-27T18:30:54.864Z,97944.10
2022-08-27T18:33:27.287Z,97950.61
2022-08-27T18:35:59.836Z,97948.30
2022-08-27T18:38:32.347Z,97947.32
2022-08-27T18:41:04.587Z,97956.33
2022-08-27T18:43:42.565Z,97961.39
2022-08-27T18:46:15.463Z,97965.20
2022-08-27T18:48:48.141Z,97968.14
2022-08-27T18:51:23.014Z,97967.44
2022-08-27T18:53:55.424Z,97968.52
2022-08-27T18:56:28.919Z,97970.11
2022-08-27T18:59:01.271Z,97971.45
2022-08-27T19:01:37.726Z,97962.98
2022-08-27T19:04:13.140Z,97970.27
2022-08-27T19:06:46.275Z,97974.35
2022-08-27T19:09:23.741Z,97978.45
2022-08-27T19:11:56.088Z,97980.85
2022-08-27T19:14:28.292Z,97979.75
2022-08-27T19:17:02.846Z,97980.15
2022-08-27T19:19:35.455Z,97976.02
2022-08-27T19:22:08.093Z,97973.88
2022-08-27T19:24:41.411Z,97978.69
2022-08-27T19:27:13.609Z,97980.73
2022-08-27T19:29:46.539Z,97989.35
2022-08-27T19:32:18.949Z,97988.13
2022-08-27T19:34:51.514Z,97985.70
2022-08-27T19:37:29.529Z,97980.02
2022-08-27T19:40:04.820Z,97979.44
2022-08-27T19:42:37.130Z,97980.65
2022-08-27T19:45:11.965Z,97978.45
2022-08-27T19:47:49.973Z,97977.05
2022-08-27T19:50:23.214Z,97979.77
2022-08-27T19:52:55.765Z,97977.77
2022-08-27T19:55:28.295Z,97982.66
2022-08-27T19:58:00.734Z,97980.83
2022-08-27T20:00:33.052Z,97985.95
2022-08-27T20:03:05.492Z,97986.87
2022-08-27T20:05:38.032Z,97988.07
2022-08-27T20:08:10.736Z,97985.11
2022-08-27T20:10:45.969Z,97983.17
2022-08-27T20:13:18.432Z,97983.96
2022-08-27T20:15:53.354Z,97984.02
2022-08-27T20:18:26.520Z,97982.05
2022-08-27T20:20:59.810Z,97978.89
2022-08-27T20:23:38.581Z,97983.27
2022-08-27T20:26:10.962Z,97985.45
2022-08-27T20:28:43.571Z,97984.95
2022-08-27T20:31:19.186Z,97983.52
2022-08-27T20:33:51.673Z,97986.05
2022-08-27T20:36:28.155Z,97983.41
2022-08-27T20:39:00.392Z,97980.21
2022-08-27T20:41:33.217Z,97980.83
2022-08-27T20:44:05.655Z,97981.05
2022-08-27T20:46:38.555Z,97983.55
2022-08-27T20:49:10.695Z,97986.05
2022-08-27T20:51:56.835Z,97983.80
2022-08-27T20:54:36.158Z,97984.64
2022-08-27T20:57:09.538Z,97978.84
2022-08-27T21:00:00.016Z,97981.83
2022-08-27T21:02:32.536Z,97982.70
2022-08-27T21:05:12.977Z,97984.25
2022-08-27T21:07:48.597Z,97982.15
2022-08-27T21:10:21.664Z,97981.26
2022-08-27T21:12:53.877Z,97983.08
2022-08-27T21:15:26.463Z,97986.40
2022-08-27T21:17:58.796Z,97986.06
2022-08-27T21:20:32.258Z,97983.23
2022-08-27T21:23:04.627Z,97983.20
2022-08-27T21:25:36.839Z,97980.11
2022-08-27T21:28:09.032Z,97979.75
2022-08-27T21:30:41.186Z,97978.70
2022-08-27T21:33:13.508Z,97979.61
2022-08-27T21:35:45.632Z,97975.45
2022-08-27T21:38:21.115Z,97975.59
2022-08-27T21:40:55.392Z,97972.13
2022-08-27T21:43:27.619Z,97973.88
2022-08-27T21:46:00.573Z,97971.58
2022-08-27T21:48:33.250Z,97971.80
2022-08-27T21:51:11.694Z,97967.15
2022-08-27T21:53:44.374Z,97968.60
2022-08-27T21:56:16.839Z,97960.90
2022-08-27T21:58:49.129Z,97961.97
2022-08-27T22:01:22.057Z,97961.52
2022-08-27T22:03:55.259Z,97961.80
2022-08-27T22:06:27.513Z,97967.10
2022-08-27T22:08:59.887Z,97963.83
2022-08-27T22:11:31.986Z,97969.45
2022-08-27T22:14:04.194Z,97967.27
2022-08-27T22:16:36.400Z,97971.98
2022-08-27T22:19:08.914Z,97975.10
2022-08-27T22:21:42.749Z,97974.52
2022-08-27T22:24:15.200Z,97971.77
2022-08-27T22:26:50.571Z,97966.21
2022-08-27T22:29:24.546Z,97965.80
2022-08-27T22:31:56.783Z,97965.55
2022-08-27T22:34:28.937Z,97972.48
2022-08-27T22:37:01.061Z,97972.72
2022-08-27T22:39:33.889Z,97975.48
2022-08-27T22:42:09.112Z,97970.83
2022-08-27T22:44:44.070Z,97974.23
2022-08-27T22:47:16.455Z,97969.96
2022-08-27T22:49:49.068Z,97965.70
2022-08-27T22:52:25.863Z,97961.06
2022-08-27T22:55:00.777Z,97956.27
2022-08-27T22:57:33.060Z,97951.91
2022-08-27T23:00:08.900Z,97952.91
2022-08-27T23:02:43.831Z,97954.95
2022-08-27T23:05:17.334Z,97951.23
2022-08-27T23:07:50.373Z,97950.64
2022-08-27T23:10:25.379Z,97948.48
2022-08-27T23:12:57.928Z,97944.27
2022-08-27T23:15:31.424Z,97943.83
2022-08-27T23:18:03.917Z,97942.57
2022-08-27T23:20:36.270Z,97942.16
2022-08-27T23:23:10.177Z,97941.86
2022-08-27T23:26:00.635Z,97939.96
2022-08-27T23:28:33.109Z,97946.27
2022-08-27T23:31:05.569Z,97946.53
2022-08-27T23:33:38.041Z,97946.19
2022-08-27T23:36:11.172Z,97949.70
2022-08-27T23:38:43.318Z,97953.09
2022-08-27T23:41:17.056Z,97949.02
2022-08-27T23:43:49.236Z,97954.25
2022-08-27T23:46:21.680Z,97954.27
2022-08-27T23:48:54.609Z,97956.26
2022-08-27T23:51:26.830Z,97956.62
2022-08-27T23:53:59.023Z,97954.35
2022-08-27T23:56:31.514Z,97955.77
2022-08-27T23:59:04.437Z,97951.59
